Hlavní strana
METAR-TAF:

METAR-TAF

Letiště :

Visby, Gotland, Švédsko

zeměpisná šířka: 57-40N, zeměpisná délka: 018-21E, výška: 51 m

Aktuální stav počasí

Zpráva byla vytvořena před 29 minutami, v 03:50 UTC
Jižní vítr 8 kt
Teplota 9°C
Vlhkost vzduchu 93%
Tlak 1016 hPa
Viditelnost: 3500 m
Oblačno až skoro zataženo ve výšce 400 ft
kouřmo

METAR: ESSV 240350Z 19008KT 3500 BR BKN004 09/08 Q1016

Čas: 06:19 (04:19 UTC)

Předpověď počasí

Zpráva byla vytvořena před 1 hodinou a 49 minutami, v 02:30 UTC
Předpověď platná od 24 v 03 UTC do 24 v 12 UTC
Jihojihozápadní vítr 6 kt
Viditelnost: 5000 m
Oblačno až skoro zataženo ve výšce 3000 ft
Dočasný
od 24 v 03 UTC do 24 v 07 UTC
Viditelnost: 0200 m
ve výšce 200 ft
mlha

TAF: ESSV 240230Z 2403/2412 20006KT 5000 BKN030 TEMPO 2403/2407 0200 FG VV002

Stav a předpovědi počasí z více než 4 000 letišť (zprávy METAR a TAF).

Červené a žluté tečky na mapě představují dostupné meteorologické stanice.

Když kurzor umístíte na tečku, zobrazí se název stanice.

Pak kliknutím zobrazíte stav a předpověď počasí.

Chcete-li změnit mapu, kliknutím na zelené tlačítko se znaménkem +mapu přiblížíte, kliknutím na zelené tlačítko se znaménkem – mapu oddálíte a kliknutím na zelené šipky přejdete na sousední mapy.


METAR-TAF: